< < Back
Terminal Aerodrome Forecast


Current Version              Previous Versions:   1  2  3  4  5  6  7  8  9  

Terminal Aerodrome Forecast

177
FTUS42 KGSP 020500
TAFHKY
TAF
KHKY 020535Z 0206/0306 00000KT P6SM SCT250
     FM021000 00000KT 5SM BR SCT250
     FM021300 25003KT P6SM FEW060
     FM022000 25005KT P6SM BKN060 PROB30 0220/0302 4SM TSRA BKN040CB
     FM030200 26003KT P6SM BKN060 PROB30 0302/0306 4SM TSRA
      BKN040CB=

Latest METAR

233
SAUS70 KWBC 020800
MTRHKY
METAR KHKY 020753Z AUTO 35003KT 10SM CLR 22/21 A3008 RMK AO2 SLP162
T02170206 $


USA.gov is the U.S. government's official web portal to all federal, state and local government web resources and services.